Time;durP1;ratioP1;P1;durP2;ratioP2;P2;SDS_P1;SDS_P2;PMS_P1;PMS_P2;Temp;Humidity;BMP_temperature;BMP_pressure;BME280_temperature;BME280_humidity;BME280_pressure;Samples;Min_cycle;Max_cycle;Signal;HPM_P1;HPM_P2
2021/01/24 00:02:05;;;;;;;;;;;4.00;99.90;;;;;;5103761;28;19998;-81
2021/01/24 00:04:31;;;;;;;;;;;4.00;99.90;;;;;;5104888;28;19935;-80
2021/01/24 00:06:56;;;;;;;;;;;4.00;99.90;;;;;;5124413;28;20355;-80
2021/01/24 00:09:21;;;;;;;;;;;3.90;99.90;;;;;;5123190;28;19914;-80
2021/01/24 00:11:47;;;;;;;;;;;3.90;99.90;;;;;;5122803;28;20359;-80
2021/01/24 00:14:12;;;;;;;;;;;3.90;99.90;;;;;;5105843;28;19911;-80
2021/01/24 00:16:38;;;;;;;;;;;3.90;99.90;;;;;;5106044;28;19908;-81
2021/01/24 00:19:03;;;;;;;;;;;3.90;99.90;;;;;;5126783;28;20381;-81
2021/01/24 00:21:29;;;;;;;;;;;3.90;99.90;;;;;;5105942;28;19956;-81
2021/01/24 00:23:54;;;;;;;;;;;3.90;99.90;;;;;;5105139;28;19912;-81
2021/01/24 00:26:20;;;;;;;;;;;3.90;99.90;;;;;;5121520;28;19908;-80
2021/01/24 00:28:45;;;;;;;;;;;3.80;99.90;;;;;;5103188;28;19966;-80
2021/01/24 00:31:10;;;;;;;;;;;3.80;99.90;;;;;;5120050;28;21215;-80
2021/01/24 00:33:36;;;;;;;;;;;3.80;99.90;;;;;;5094917;28;19912;-80
2021/01/24 00:36:02;;;;;;;;;;;3.70;99.90;;;;;;5108826;28;19959;-80
2021/01/24 00:38:27;;;;;;;;;;;3.70;99.90;;;;;;5105611;28;20444;-80
2021/01/24 00:40:52;;;;;;;;;;;3.60;99.90;;;;;;5124137;28;20405;-80
2021/01/24 00:43:18;;;;;;;;;;;3.60;99.90;;;;;;5126010;28;19947;-81
2021/01/24 00:45:43;;;;;;;;;;;3.60;99.90;;;;;;5104645;28;19919;-81
2021/01/24 00:48:09;;;;;;;;;;;3.50;99.90;;;;;;5096614;28;19961;-80
2021/01/24 00:50:34;;;;;;;;;;;3.50;99.90;;;;;;5122669;28;19960;-80
2021/01/24 00:53:00;;;;;;;;;;;3.50;99.90;;;;;;5122848;28;20351;-80
2021/01/24 00:55:25;;;;;;;;;;;3.40;99.90;;;;;;5105513;28;20293;-80
2021/01/24 00:57:51;;;;;;;;;;;3.40;99.90;;;;;;5102916;28;21299;-80
2021/01/24 01:00:16;;;;;;;;;;;3.40;99.90;;;;;;5100230;28;19923;-80
2021/01/24 01:02:42;;;;;;;;;;;3.30;99.90;;;;;;5127120;27;20324;-80
2021/01/24 01:05:07;;;;;;;;;;;3.30;99.90;;;;;;5114117;27;19919;-80
2021/01/24 01:07:33;;;;;;;;;;;3.30;99.90;;;;;;5126427;27;19918;-80
2021/01/24 01:09:58;;;;;;;;;;;3.20;99.90;;;;;;5125562;27;19907;-80
2021/01/24 01:12:24;;;;;;;;;;;3.20;99.90;;;;;;5127417;27;20271;-80
2021/01/24 01:14:49;;;;;;;;;;;3.30;99.90;;;;;;5109143;27;19957;-80
2021/01/24 01:17:15;;;;;;;;;;;3.20;99.90;;;;;;5127275;27;19956;-80
2021/01/24 01:19:40;;;;;;;;;;;3.30;99.90;;;;;;5127423;27;20375;-80
2021/01/24 01:22:06;;;;;;;;;;;3.20;99.90;;;;;;5108740;27;19908;-80
2021/01/24 01:24:31;;;;;;;;;;;3.20;99.90;;;;;;5108495;27;19968;-80
2021/01/24 01:26:57;;;;;;;;;;;3.20;99.90;;;;;;5105736;27;19914;-80
2021/01/24 01:29:22;;;;;;;;;;;3.20;99.90;;;;;;5123896;27;20413;-80
2021/01/24 01:31:48;;;;;;;;;;;3.20;99.90;;;;;;5107390;27;20378;-80
2021/01/24 01:34:13;;;;;;;;;;;3.20;99.90;;;;;;5106094;27;19918;-80
2021/01/24 01:36:39;;;;;;;;;;;3.20;99.90;;;;;;5126504;27;19908;-80
2021/01/24 01:39:04;;;;;;;;;;;3.10;99.90;;;;;;5125048;27;20324;-80
2021/01/24 01:41:30;;;;;;;;;;;3.10;99.90;;;;;;5108420;27;19907;-80
2021/01/24 01:43:56;;;;;;;;;;;3.10;99.90;;;;;;5105476;27;19962;-80
2021/01/24 01:46:22;;;;;;;;;;;3.00;99.90;;;;;;5108945;27;19951;-79
2021/01/24 01:48:48;;;;;;;;;;;3.00;99.90;;;;;;5126125;27;19908;-80
2021/01/24 01:51:14;;;;;;;;;;;3.00;99.90;;;;;;5124343;27;20450;-80
2021/01/24 01:53:40;;;;;;;;;;;3.00;99.90;;;;;;5107779;27;19915;-81
2021/01/24 01:56:05;;;;;;;;;;;3.00;99.90;;;;;;5126359;27;19908;-81
2021/01/24 01:58:31;;;;;;;;;;;3.00;99.90;;;;;;5124097;27;19934;-81
2021/01/24 02:00:57;;;;;;;;;;;3.00;99.90;;;;;;5128799;27;19920;-81
2021/01/24 02:03:32;;;;;;;;;;;3.00;99.90;;;;;;5123216;27;19908;-80
2021/01/24 02:06:26;;;;;;;;;;;3.00;99.90;;;;;;5127927;27;19994;-81
2021/01/24 02:09:06;;;;;;;;;;;3.00;99.90;;;;;;5093474;28;20474;-81
2021/01/24 02:11:55;;;;;;;;;;;3.00;99.90;;;;;;5126651;27;19907;-80
2021/01/24 02:14:25;;;;;;;;;;;3.00;99.90;;;;;;5110900;27;20398;-81
2021/01/24 02:16:51;;;;;;;;;;;3.10;99.90;;;;;;5109665;27;20290;-81
2021/01/24 02:19:20;;;;;;;;;;;3.10;99.90;;;;;;5127455;27;19915;-81
2021/01/24 02:21:46;;;;;;;;;;;3.10;99.90;;;;;;5098242;27;19976;-81
2021/01/24 02:24:13;;;;;;;;;;;3.10;99.90;;;;;;5126513;27;20387;-81
2021/01/24 02:26:54;;;;;;;;;;;3.10;99.90;;;;;;5105464;27;19943;-81
2021/01/24 02:29:19;;;;;;;;;;;3.10;99.90;;;;;;5103601;27;19914;-81
2021/01/24 02:31:46;;;;;;;;;;;3.20;99.90;;;;;;5124563;27;19908;-81
2021/01/24 02:34:13;;;;;;;;;;;3.20;99.90;;;;;;5123374;27;20367;-81
2021/01/24 02:36:39;;;;;;;;;;;3.20;99.90;;;;;;5124737;27;20394;-80
2021/01/24 02:39:05;;;;;;;;;;;3.20;99.90;;;;;;5124307;27;19961;-81
2021/01/24 02:41:31;;;;;;;;;;;3.20;99.90;;;;;;5125948;27;19908;-81
2021/01/24 02:43:57;;;;;;;;;;;3.30;99.90;;;;;;5109470;27;19911;-81
2021/01/24 02:46:22;;;;;;;;;;;3.30;99.90;;;;;;5122310;27;19919;-81
2021/01/24 02:48:52;;;;;;;;;;;3.30;99.90;;;;;;5105810;27;20314;-81
2021/01/24 02:51:17;;;;;;;;;;;3.30;99.90;;;;;;5123051;27;19914;-81
2021/01/24 02:53:44;;;;;;;;;;;3.30;99.90;;;;;;5124978;27;19912;-81
2021/01/24 02:56:09;;;;;;;;;;;3.30;99.90;;;;;;5125101;27;19908;-81
2021/01/24 02:58:35;;;;;;;;;;;3.30;99.90;;;;;;5125180;27;19957;-81
2021/01/24 03:01:01;;;;;;;;;;;3.30;99.90;;;;;;5107257;27;19920;-81
2021/01/24 03:03:26;;;;;;;;;;;3.30;99.90;;;;;;5127305;27;19995;-81
2021/01/24 03:05:52;;;;;;;;;;;3.20;99.90;;;;;;5123646;27;19972;-81
2021/01/24 03:08:18;;;;;;;;;;;3.20;99.90;;;;;;5104624;27;19957;-81
2021/01/24 03:10:43;;;;;;;;;;;3.10;99.90;;;;;;5106335;27;19911;-81
2021/01/24 03:13:13;;;;;;;;;;;3.10;99.90;;;;;;5106716;27;19976;-81
2021/01/24 03:15:39;;;;;;;;;;;3.10;99.90;;;;;;5125624;27;20002;-81
2021/01/24 03:18:06;;;;;;;;;;;3.10;99.90;;;;;;5102926;27;19955;-81
2021/01/24 03:20:33;;;;;;;;;;;3.00;99.90;;;;;;5123158;27;19919;-80
2021/01/24 03:23:00;;;;;;;;;;;3.00;99.90;;;;;;5099055;27;19989;-80
2021/01/24 03:25:25;;;;;;;;;;;3.00;99.90;;;;;;5122943;27;19957;-81
2021/01/24 03:27:51;;;;;;;;;;;3.00;99.90;;;;;;5108404;27;19953;-80
2021/01/24 03:30:16;;;;;;;;;;;3.00;99.90;;;;;;5122467;27;19915;-80
2021/01/24 03:32:42;;;;;;;;;;;3.00;99.90;;;;;;5122182;27;19908;-80
2021/01/24 03:35:07;;;;;;;;;;;2.90;99.90;;;;;;5123739;27;20317;-80
2021/01/24 03:37:33;;;;;;;;;;;3.00;99.90;;;;;;5104772;28;19959;-80
2021/01/24 03:39:58;;;;;;;;;;;2.90;99.90;;;;;;5124662;27;19908;-80
2021/01/24 03:42:26;;;;;;;;;;;2.90;99.90;;;;;;5124821;27;19907;-80
2021/01/24 03:44:52;;;;;;;;;;;2.90;99.90;;;;;;5130222;27;19987;-80
2021/01/24 03:47:17;;;;;;;;;;;2.90;99.90;;;;;;5122273;27;20342;-80
2021/01/24 03:49:42;;;;;;;;;;;2.90;99.90;;;;;;5107871;28;20362;-80
2021/01/24 03:52:08;;;;;;;;;;;2.90;99.90;;;;;;5123827;27;19908;-80
2021/01/24 03:54:33;;;;;;;;;;;2.90;99.90;;;;;;5106146;28;19935;-80
2021/01/24 03:56:59;;;;;;;;;;;2.90;99.90;;;;;;5124322;27;19914;-80
2021/01/24 03:59:24;;;;;;;;;;;2.90;99.90;;;;;;5124585;28;19969;-80
2021/01/24 04:01:50;;;;;;;;;;;2.90;99.90;;;;;;5122423;28;19982;-80
2021/01/24 04:04:15;;;;;;;;;;;2.90;99.90;;;;;;5122347;28;19912;-80
2021/01/24 04:06:41;;;;;;;;;;;2.90;99.90;;;;;;5109667;28;19995;-80
2021/01/24 04:09:06;;;;;;;;;;;2.90;99.90;;;;;;5105269;28;19911;-80
2021/01/24 04:11:32;;;;;;;;;;;2.90;99.90;;;;;;5104768;28;19907;-80
2021/01/24 04:13:57;;;;;;;;;;;2.90;99.90;;;;;;5124123;28;19915;-80
2021/01/24 04:16:23;;;;;;;;;;;2.90;99.90;;;;;;5105031;28;19938;-80
2021/01/24 04:18:48;;;;;;;;;;;2.90;99.90;;;;;;5122988;28;19914;-80
2021/01/24 04:21:13;;;;;;;;;;;2.90;99.90;;;;;;5105563;28;19915;-80
2021/01/24 04:23:39;;;;;;;;;;;2.80;99.90;;;;;;5105791;28;19957;-80
2021/01/24 04:26:04;;;;;;;;;;;2.90;99.90;;;;;;5107014;28;20324;-80
2021/01/24 04:28:30;;;;;;;;;;;2.80;99.90;;;;;;5126071;28;19939;-80
2021/01/24 04:30:55;;;;;;;;;;;2.80;99.90;;;;;;5119842;28;19915;-80
2021/01/24 04:33:21;;;;;;;;;;;2.80;99.90;;;;;;5124012;28;19942;-80
2021/01/24 04:35:46;;;;;;;;;;;2.80;99.90;;;;;;5104392;27;19915;-80
2021/01/24 04:38:11;;;;;;;;;;;2.80;99.90;;;;;;5107592;27;20002;-80
2021/01/24 04:40:37;;;;;;;;;;;2.80;99.90;;;;;;5107673;27;19908;-80
2021/01/24 04:43:02;;;;;;;;;;;2.80;99.90;;;;;;5108477;27;19907;-80
2021/01/24 04:45:28;;;;;;;;;;;2.70;99.90;;;;;;5106159;27;19915;-80
2021/01/24 04:47:55;;;;;;;;;;;2.70;99.90;;;;;;5109531;27;19964;-79
2021/01/24 04:50:20;;;;;;;;;;;2.70;99.90;;;;;;5108570;27;19908;-80
2021/01/24 04:52:46;;;;;;;;;;;2.70;99.90;;;;;;5126800;27;19930;-79
2021/01/24 04:55:13;;;;;;;;;;;2.70;99.90;;;;;;5131017;27;19908;-80
2021/01/24 04:57:38;;;;;;;;;;;2.70;99.90;;;;;;5125705;27;19918;-79
2021/01/24 05:00:04;;;;;;;;;;;2.70;99.90;;;;;;5130618;27;20005;-80
2021/01/24 05:02:30;;;;;;;;;;;2.70;99.90;;;;;;5107348;27;19908;-80
2021/01/24 05:04:55;;;;;;;;;;;2.70;99.90;;;;;;5105396;27;20005;-80
2021/01/24 05:07:21;;;;;;;;;;;2.60;99.90;;;;;;5106630;27;19908;-80
2021/01/24 05:09:47;;;;;;;;;;;2.60;99.90;;;;;;5126939;27;19931;-79
2021/01/24 05:12:12;;;;;;;;;;;2.60;99.90;;;;;;5108160;27;19918;-80
2021/01/24 05:14:39;;;;;;;;;;;2.60;99.90;;;;;;5127247;27;20287;-80
2021/01/24 05:17:04;;;;;;;;;;;2.60;99.90;;;;;;5111884;27;19947;-80
2021/01/24 05:19:32;;;;;;;;;;;2.60;99.90;;;;;;5106109;27;20007;-80
2021/01/24 05:21:57;;;;;;;;;;;2.70;99.90;;;;;;5128351;27;19931;-80
2021/01/24 05:24:23;;;;;;;;;;;2.70;99.90;;;;;;5109637;27;20358;-79
2021/01/24 05:26:49;;;;;;;;;;;2.60;99.90;;;;;;5126740;27;19920;-79
2021/01/24 05:29:21;;;;;;;;;;;2.70;99.90;;;;;;5127172;27;19923;-79
2021/01/24 05:31:46;;;;;;;;;;;2.70;99.90;;;;;;5113865;27;19935;-80
2021/01/24 05:34:15;;;;;;;;;;;2.70;99.90;;;;;;5124474;27;19912;-79
2021/01/24 05:36:41;;;;;;;;;;;2.70;99.90;;;;;;5106691;27;19987;-79
2021/01/24 05:39:07;;;;;;;;;;;2.70;99.90;;;;;;5126305;27;19915;-79
2021/01/24 05:41:33;;;;;;;;;;;2.70;99.90;;;;;;5108017;27;19912;-79
2021/01/24 05:43:58;;;;;;;;;;;2.70;99.90;;;;;;5108291;27;20359;-80
2021/01/24 05:46:31;;;;;;;;;;;2.70;99.90;;;;;;5104530;27;19912;-80
2021/01/24 05:48:56;;;;;;;;;;;2.70;99.90;;;;;;5106383;27;19913;-80
2021/01/24 05:51:22;;;;;;;;;;;2.70;99.90;;;;;;5105892;27;19998;-79
2021/01/24 05:53:48;;;;;;;;;;;2.70;99.90;;;;;;5125451;27;19915;-80
2021/01/24 05:56:18;;;;;;;;;;;2.70;99.90;;;;;;5123883;27;19911;-79
2021/01/24 05:58:43;;;;;;;;;;;2.70;99.90;;;;;;5106343;27;19911;-79
2021/01/24 06:01:09;;;;;;;;;;;2.70;99.90;;;;;;5122090;27;19919;-79
2021/01/24 06:03:35;;;;;;;;;;;2.70;99.90;;;;;;5124108;27;19923;-79
2021/01/24 06:06:00;;;;;;;;;;;2.70;99.90;;;;;;5106843;27;19991;-79
2021/01/24 06:08:26;;;;;;;;;;;2.70;99.90;;;;;;5124338;27;20016;-79
2021/01/24 06:10:53;;;;;;;;;;;2.60;99.90;;;;;;5125768;27;19908;-79
2021/01/24 06:13:22;;;;;;;;;;;2.60;99.90;;;;;;5125097;27;19918;-79
2021/01/24 06:15:50;;;;;;;;;;;2.60;99.90;;;;;;5126428;27;19907;-79
2021/01/24 06:18:18;;;;;;;;;;;2.60;99.90;;;;;;5105426;27;19908;-79
2021/01/24 06:20:49;;;;;;;;;;;2.60;99.90;;;;;;5106449;27;19946;-79
2021/01/24 06:23:14;;;;;;;;;;;2.60;99.90;;;;;;5105944;27;19988;-79
2021/01/24 06:25:42;;;;;;;;;;;2.60;99.90;;;;;;5113577;27;20271;-79
2021/01/24 06:28:10;;;;;;;;;;;2.50;99.90;;;;;;5127345;27;19908;-79
2021/01/24 06:30:35;;;;;;;;;;;2.50;99.90;;;;;;5123263;27;19920;-79
2021/01/24 06:33:11;;;;;;;;;;;2.40;99.90;;;;;;5101115;27;19907;-79
2021/01/24 06:35:42;;;;;;;;;;;2.40;99.90;;;;;;5100408;28;19912;-79
2021/01/24 06:38:08;;;;;;;;;;;2.40;99.90;;;;;;5114325;28;19915;-79
2021/01/24 06:40:41;;;;;;;;;;;2.40;99.90;;;;;;5095862;28;19934;-79
2021/01/24 06:43:06;;;;;;;;;;;2.40;99.90;;;;;;5108281;27;19911;-79
2021/01/24 06:45:32;;;;;;;;;;;2.30;99.90;;;;;;5110806;27;19919;-79
2021/01/24 06:47:59;;;;;;;;;;;2.30;99.90;;;;;;5135226;27;19907;-79
2021/01/24 06:50:38;;;;;;;;;;;2.30;99.90;;;;;;5135767;27;19947;-79
2021/01/24 06:53:10;;;;;;;;;;;2.30;99.90;;;;;;5134901;27;20367;-79
2021/01/24 06:55:38;;;;;;;;;;;2.20;99.90;;;;;;5124526;27;19941;-80
2021/01/24 06:58:21;;;;;;;;;;;2.20;99.90;;;;;;5123573;27;19968;-80
2021/01/24 07:00:47;;;;;;;;;;;2.20;99.90;;;;;;5095103;28;19929;-79
2021/01/24 07:03:16;;;;;;;;;;;2.20;99.90;;;;;;5114484;28;20368;-79
2021/01/24 07:05:42;;;;;;;;;;;2.20;99.90;;;;;;5096106;28;20003;-80
2021/01/24 07:08:27;;;;;;;;;;;2.20;99.90;;;;;;5096180;28;19908;-80
2021/01/24 07:10:52;;;;;;;;;;;2.10;99.90;;;;;;5096187;28;19912;-79
2021/01/24 07:13:28;;;;;;;;;;;2.10;99.90;;;;;;5114464;28;19916;-79
2021/01/24 07:15:58;;;;;;;;;;;2.10;99.90;;;;;;5096216;28;19918;-80
2021/01/24 07:18:23;;;;;;;;;;;2.10;99.90;;;;;;5102216;28;19996;-79
2021/01/24 07:20:51;;;;;;;;;;;2.10;99.90;;;;;;5114353;28;20325;-80
2021/01/24 07:23:17;;;;;;;;;;;2.10;99.90;;;;;;5114085;28;19915;-79
2021/01/24 07:25:43;;;;;;;;;;;2.00;99.90;;;;;;5114101;28;19912;-80
2021/01/24 07:28:09;;;;;;;;;;;2.00;99.90;;;;;;5114223;28;19968;-79
2021/01/24 07:30:38;;;;;;;;;;;2.00;99.90;;;;;;5113153;28;19911;-79
2021/01/24 07:33:03;;;;;;;;;;;2.00;99.90;;;;;;5095645;28;19908;-80
2021/01/24 07:35:33;;;;;;;;;;;2.00;99.90;;;;;;5113672;28;19908;-79
2021/01/24 07:37:59;;;;;;;;;;;1.90;99.90;;;;;;5094896;28;20331;-79
2021/01/24 07:40:25;;;;;;;;;;;1.90;99.90;;;;;;5101708;27;20339;-80
2021/01/24 07:42:50;;;;;;;;;;;1.90;99.90;;;;;;5099617;28;19941;-79
2021/01/24 07:45:15;;;;;;;;;;;1.90;99.90;;;;;;5117621;27;19911;-80
2021/01/24 07:47:41;;;;;;;;;;;1.90;99.90;;;;;;5115101;27;19908;-80
2021/01/24 07:50:07;;;;;;;;;;;1.90;99.90;;;;;;5115486;28;20045;-80
2021/01/24 07:52:33;;;;;;;;;;;1.90;99.90;;;;;;5096219;28;19911;-79
2021/01/24 07:54:58;;;;;;;;;;;1.90;99.90;;;;;;5096977;28;19914;-80
2021/01/24 07:57:24;;;;;;;;;;;1.90;99.90;;;;;;5113525;28;19912;-80
2021/01/24 07:59:50;;;;;;;;;;;1.80;99.90;;;;;;5091318;28;19959;-79
2021/01/24 08:02:16;;;;;;;;;;;1.90;99.90;;;;;;5091282;28;19973;-79
2021/01/24 08:04:42;;;;;;;;;;;1.90;99.90;;;;;;5091090;28;19973;-80
2021/01/24 08:07:08;;;;;;;;;;;1.90;99.90;;;;;;5095195;28;19912;-79
2021/01/24 08:09:34;;;;;;;;;;;1.90;99.90;;;;;;5092418;28;19912;-79
2021/01/24 08:12:05;;;;;;;;;;;1.90;99.90;;;;;;5093537;28;20519;-79
2021/01/24 08:14:30;;;;;;;;;;;1.90;99.90;;;;;;5095081;28;19908;-79
2021/01/24 08:16:56;;;;;;;;;;;1.90;99.90;;;;;;5099228;28;19915;-79
2021/01/24 08:19:23;;;;;;;;;;;1.90;99.90;;;;;;5099608;28;19947;-79
2021/01/24 08:21:49;;;;;;;;;;;1.80;99.90;;;;;;5098209;28;19915;-79
2021/01/24 08:24:15;;;;;;;;;;;1.90;99.90;;;;;;5102586;28;19916;-79
2021/01/24 08:26:40;;;;;;;;;;;1.90;99.90;;;;;;5095151;28;19912;-79
2021/01/24 08:29:06;;;;;;;;;;;1.90;99.90;;;;;;5097743;28;19957;-79
2021/01/24 08:31:33;;;;;;;;;;;1.90;99.90;;;;;;5105455;28;19915;-79
2021/01/24 08:33:59;;;;;;;;;;;2.00;99.90;;;;;;5115378;28;19977;-79
2021/01/24 08:36:26;;;;;;;;;;;1.90;99.90;;;;;;5108020;28;19935;-79
2021/01/24 08:38:56;;;;;;;;;;;1.90;99.90;;;;;;5095415;28;19908;-79
2021/01/24 08:41:27;;;;;;;;;;;1.90;99.90;;;;;;5096714;28;19915;-80
2021/01/24 08:44:13;;;;;;;;;;;1.90;99.90;;;;;;5095066;28;20327;-80
2021/01/24 08:46:47;;;;;;;;;;;1.90;99.90;;;;;;5096569;28;19908;-80
2021/01/24 08:49:18;;;;;;;;;;;1.90;99.90;;;;;;5095068;28;20002;-80
2021/01/24 08:51:45;;;;;;;;;;;1.90;99.90;;;;;;5096472;28;19912;-80
2021/01/24 08:54:13;;;;;;;;;;;1.90;99.90;;;;;;5086878;28;19951;-79
2021/01/24 08:56:39;;;;;;;;;;;1.90;99.90;;;;;;5097771;28;19919;-80
2021/01/24 08:59:16;;;;;;;;;;;1.90;99.90;;;;;;5108482;27;19907;-80
2021/01/24 09:01:49;;;;;;;;;;;1.80;99.90;;;;;;5114034;27;19908;-79
2021/01/24 09:04:21;;;;;;;;;;;1.80;99.90;;;;;;5113254;27;20006;-79
2021/01/24 09:06:59;;;;;;;;;;;1.70;99.90;;;;;;5118206;27;19915;-80
2021/01/24 09:09:25;;;;;;;;;;;1.70;99.90;;;;;;5118252;27;19919;-81
2021/01/24 09:11:51;;;;;;;;;;;1.60;99.90;;;;;;5099359;28;19912;-81
2021/01/24 09:14:16;;;;;;;;;;;1.60;99.90;;;;;;5105192;27;20045;-80
2021/01/24 09:16:41;;;;;;;;;;;1.60;99.90;;;;;;5103755;27;19908;-79
2021/01/24 09:19:07;;;;;;;;;;;1.60;99.90;;;;;;5126404;27;19908;-80
2021/01/24 09:21:32;;;;;;;;;;;1.60;99.90;;;;;;5107786;27;20402;-79
2021/01/24 09:23:58;;;;;;;;;;;1.70;99.90;;;;;;5123551;27;20381;-80
2021/01/24 09:26:23;;;;;;;;;;;1.80;99.90;;;;;;5115583;27;20454;-80
2021/01/24 09:28:49;;;;;;;;;;;1.80;99.90;;;;;;5129861;27;19952;-80
2021/01/24 09:31:20;;;;;;;;;;;1.80;99.90;;;;;;5120968;27;19911;-80
2021/01/24 09:33:46;;;;;;;;;;;1.90;99.90;;;;;;5110399;28;20367;-80
2021/01/24 09:36:11;;;;;;;;;;;1.90;99.90;;;;;;5101405;28;19915;-81
2021/01/24 09:38:37;;;;;;;;;;;2.00;99.90;;;;;;5097082;28;19908;-80
2021/01/24 09:41:02;;;;;;;;;;;2.00;99.90;;;;;;5115201;27;20386;-80
2021/01/24 09:43:27;;;;;;;;;;;2.10;99.90;;;;;;5097389;28;20003;-81
2021/01/24 09:45:53;;;;;;;;;;;2.10;99.90;;;;;;5096848;28;20388;-80
2021/01/24 09:48:18;;;;;;;;;;;2.20;99.90;;;;;;5097194;28;19908;-80
2021/01/24 09:50:44;;;;;;;;;;;2.30;99.90;;;;;;5107302;28;19919;-81
2021/01/24 09:53:09;;;;;;;;;;;2.40;99.90;;;;;;5085525;27;19975;-81
2021/01/24 09:55:35;;;;;;;;;;;2.50;99.90;;;;;;5118700;27;19998;-81
2021/01/24 09:58:00;;;;;;;;;;;2.60;99.90;;;;;;5116704;27;19918;-81
2021/01/24 10:00:26;;;;;;;;;;;2.70;99.90;;;;;;5123368;27;19927;-81
2021/01/24 10:02:51;;;;;;;;;;;2.70;99.90;;;;;;5122354;27;19957;-80
2021/01/24 10:05:16;;;;;;;;;;;2.80;99.90;;;;;;5082173;28;19919;-79
2021/01/24 10:07:42;;;;;;;;;;;2.80;99.90;;;;;;5090423;27;19916;-78
2021/01/24 10:10:08;;;;;;;;;;;2.80;99.90;;;;;;5093309;27;19945;-80
2021/01/24 10:12:33;;;;;;;;;;;2.90;99.90;;;;;;5124473;27;19908;-80
2021/01/24 10:14:59;;;;;;;;;;;3.00;99.90;;;;;;5118396;27;20658;-80
2021/01/24 10:17:24;;;;;;;;;;;3.10;99.90;;;;;;5099901;27;20337;-80
2021/01/24 10:19:49;;;;;;;;;;;3.10;99.90;;;;;;5122250;27;19951;-79
2021/01/24 10:22:15;;;;;;;;;;;3.20;99.90;;;;;;5104919;27;19975;-79
2021/01/24 10:24:40;;;;;;;;;;;3.20;99.90;;;;;;5102055;28;19961;-79
2021/01/24 10:27:06;;;;;;;;;;;3.20;99.90;;;;;;5098104;28;19918;-80
2021/01/24 10:29:31;;;;;;;;;;;3.20;99.90;;;;;;5116317;27;19939;-79
2021/01/24 10:31:57;;;;;;;;;;;3.30;99.90;;;;;;5129358;27;20321;-79
2021/01/24 10:34:22;;;;;;;;;;;3.50;99.90;;;;;;5105954;28;19908;-79
2021/01/24 10:36:48;;;;;;;;;;;3.70;99.90;;;;;;5118641;27;19908;-79
2021/01/24 10:39:13;;;;;;;;;;;3.80;99.90;;;;;;5114056;28;19912;-79
2021/01/24 10:41:38;;;;;;;;;;;3.90;99.90;;;;;;5096284;28;20257;-79
2021/01/24 10:44:04;;;;;;;;;;;4.00;99.90;;;;;;5096046;28;19990;-78
2021/01/24 10:46:33;;;;;;;;;;;4.00;99.90;;;;;;5114476;28;19908;-79
2021/01/24 10:48:59;;;;;;;;;;;4.10;99.90;;;;;;5114640;28;20390;-78
2021/01/24 10:51:25;;;;;;;;;;;4.10;99.90;;;;;;5110154;27;19907;-79
2021/01/24 10:53:50;;;;;;;;;;;4.20;99.90;;;;;;5130024;27;19918;-79
2021/01/24 10:56:17;;;;;;;;;;;4.30;99.90;;;;;;5126930;27;19914;-79
2021/01/24 10:58:42;;;;;;;;;;;4.60;99.90;;;;;;5126129;27;19908;-79
2021/01/24 11:01:08;;;;;;;;;;;5.00;99.90;;;;;;5119890;27;19958;-79
2021/01/24 11:03:36;;;;;;;;;;;5.40;99.90;;;;;;5126571;27;19907;-79
2021/01/24 11:06:02;;;;;;;;;;;5.80;99.90;;;;;;5101330;27;20328;-79
2021/01/24 11:08:27;;;;;;;;;;;6.00;99.90;;;;;;5119323;27;19919;-79
2021/01/24 11:10:53;;;;;;;;;;;6.00;99.90;;;;;;5114113;28;20359;-79
2021/01/24 11:13:18;;;;;;;;;;;6.00;99.90;;;;;;5128552;27;19908;-79
2021/01/24 11:15:46;;;;;;;;;;;6.10;99.90;;;;;;5131762;27;19917;-79
2021/01/24 11:18:12;;;;;;;;;;;6.20;99.90;;;;;;5123710;27;19914;-79
2021/01/24 11:20:37;;;;;;;;;;;6.40;99.90;;;;;;5097751;28;19908;-79
2021/01/24 11:23:03;;;;;;;;;;;6.50;99.80;;;;;;5116966;27;19908;-79
2021/01/24 11:25:28;;;;;;;;;;;6.40;99.90;;;;;;5098746;28;19911;-79
2021/01/24 11:27:54;;;;;;;;;;;6.10;99.50;;;;;;5114587;27;19960;-79
2021/01/24 11:30:19;;;;;;;;;;;6.20;99.90;;;;;;5117232;27;19920;-79
2021/01/24 11:32:45;;;;;;;;;;;6.60;99.90;;;;;;5122451;27;20282;-79
2021/01/24 11:35:11;;;;;;;;;;;6.70;98.60;;;;;;5112642;28;19953;-79
2021/01/24 11:37:37;;;;;;;;;;;6.90;98.90;;;;;;5114794;27;19961;-79
2021/01/24 11:40:04;;;;;;;;;;;7.40;98.20;;;;;;5096581;27;19998;-78
2021/01/24 11:42:29;;;;;;;;;;;7.60;98.10;;;;;;5114907;27;19934;-79
2021/01/24 11:44:55;;;;;;;;;;;7.90;96.80;;;;;;5110246;27;19923;-79
2021/01/24 11:47:21;;;;;;;;;;;8.30;95.20;;;;;;5115097;28;19908;-79
2021/01/24 11:49:46;;;;;;;;;;;8.40;93.10;;;;;;5115666;27;19907;-80
2021/01/24 11:52:11;;;;;;;;;;;8.40;92.80;;;;;;5095496;27;19988;-80
2021/01/24 11:54:37;;;;;;;;;;;8.40;93.30;;;;;;5094489;28;19953;-79
2021/01/24 11:57:02;;;;;;;;;;;8.50;92.40;;;;;;5113112;28;19916;-79
2021/01/24 11:59:28;;;;;;;;;;;7.90;93.00;;;;;;5094977;28;19919;-79
2021/01/24 12:01:53;;;;;;;;;;;8.00;93.30;;;;;;5094278;28;19908;-80
2021/01/24 12:04:19;;;;;;;;;;;8.00;92.90;;;;;;5112852;28;20371;-79
2021/01/24 12:06:44;;;;;;;;;;;7.60;92.50;;;;;;5093844;28;20298;-78
2021/01/24 12:09:10;;;;;;;;;;;7.30;93.80;;;;;;5095563;28;20359;-78
2021/01/24 12:11:38;;;;;;;;;;;7.30;94.60;;;;;;5093959;28;19961;-79
2021/01/24 12:14:04;;;;;;;;;;;7.50;95.50;;;;;;5113406;28;19908;-79
2021/01/24 12:16:29;;;;;;;;;;;7.30;93.80;;;;;;5122164;28;19908;-79
2021/01/24 12:18:55;;;;;;;;;;;7.20;94.00;;;;;;5119689;28;19908;-79
2021/01/24 12:21:20;;;;;;;;;;;7.30;93.30;;;;;;5124823;28;20398;-79
2021/01/24 12:23:46;;;;;;;;;;;7.30;93.00;;;;;;5104593;28;19914;-78
2021/01/24 12:26:11;;;;;;;;;;;7.10;92.30;;;;;;5113911;28;19912;-79
2021/01/24 12:28:36;;;;;;;;;;;6.90;92.70;;;;;;5094563;28;19912;-79
2021/01/24 12:31:02;;;;;;;;;;;6.70;92.90;;;;;;5097030;28;19968;-79
2021/01/24 12:33:27;;;;;;;;;;;6.70;94.20;;;;;;5092906;28;19914;-79
2021/01/24 12:35:53;;;;;;;;;;;6.90;94.40;;;;;;5118421;28;19915;-80
2021/01/24 12:38:18;;;;;;;;;;;7.00;93.70;;;;;;5113780;28;20263;-79
2021/01/24 12:40:44;;;;;;;;;;;6.90;93.20;;;;;;5112219;28;20019;-79
2021/01/24 12:43:09;;;;;;;;;;;6.90;93.00;;;;;;5104013;28;20367;-80
2021/01/24 12:45:35;;;;;;;;;;;6.80;93.20;;;;;;5112487;28;20010;-79
2021/01/24 12:48:00;;;;;;;;;;;6.60;92.70;;;;;;5112482;28;20366;-79
2021/01/24 12:50:26;;;;;;;;;;;6.60;93.60;;;;;;5094463;28;19908;-79
2021/01/24 12:52:51;;;;;;;;;;;6.80;93.40;;;;;;5114056;28;19915;-79
2021/01/24 12:55:17;;;;;;;;;;;7.10;93.40;;;;;;5094543;28;19915;-79
2021/01/24 12:57:43;;;;;;;;;;;7.20;91.60;;;;;;5095282;28;19957;-79
2021/01/24 13:00:28;;;;;;;;;;;7.00;91.80;;;;;;5116223;28;19969;-80
2021/01/24 13:02:54;;;;;;;;;;;6.80;92.40;;;;;;5103634;27;19919;-79
2021/01/24 13:05:19;;;;;;;;;;;6.70;93.30;;;;;;5108270;28;19916;-80
2021/01/24 13:07:45;;;;;;;;;;;6.60;92.30;;;;;;5116397;27;19919;-80
2021/01/24 13:10:10;;;;;;;;;;;6.70;92.30;;;;;;5116763;27;20271;-80
2021/01/24 13:12:36;;;;;;;;;;;6.90;91.90;;;;;;5111193;28;20256;-80
2021/01/24 13:15:05;;;;;;;;;;;6.80;90.90;;;;;;5115591;28;20060;-80
2021/01/24 13:17:31;;;;;;;;;;;6.70;91.10;;;;;;5099010;27;19954;-79
2021/01/24 13:19:56;;;;;;;;;;;6.60;91.60;;;;;;5099277;28;19977;-80
2021/01/24 13:22:22;;;;;;;;;;;6.60;91.90;;;;;;5100331;27;19908;-80
2021/01/24 13:24:47;;;;;;;;;;;6.50;91.10;;;;;;5117176;27;19912;-80
2021/01/24 13:27:12;;;;;;;;;;;6.50;91.60;;;;;;5116354;27;19920;-80
2021/01/24 13:29:41;;;;;;;;;;;6.40;91.50;;;;;;5137154;27;19908;-79
2021/01/24 13:32:06;;;;;;;;;;;6.30;91.70;;;;;;5100971;28;19915;-80
2021/01/24 13:34:31;;;;;;;;;;;6.30;91.90;;;;;;5117079;27;19911;-80
2021/01/24 13:36:58;;;;;;;;;;;6.30;91.90;;;;;;5098293;28;19918;-80
2021/01/24 13:39:24;;;;;;;;;;;6.20;92.00;;;;;;5114286;27;20260;-80
2021/01/24 13:41:50;;;;;;;;;;;6.10;91.70;;;;;;5099219;27;19916;-80
2021/01/24 13:44:15;;;;;;;;;;;6.00;91.40;;;;;;5116891;27;19960;-80
2021/01/24 13:46:40;;;;;;;;;;;5.90;91.50;;;;;;5103307;27;19911;-80
2021/01/24 13:49:06;;;;;;;;;;;5.80;91.70;;;;;;5119258;27;20003;-79
2021/01/24 13:51:31;;;;;;;;;;;5.70;91.40;;;;;;5096917;27;20336;-79
2021/01/24 13:54:00;;;;;;;;;;;5.70;91.80;;;;;;5096036;28;19916;-79
2021/01/24 13:56:26;;;;;;;;;;;5.60;91.80;;;;;;5097052;28;20303;-79
2021/01/24 13:58:51;;;;;;;;;;;5.60;91.90;;;;;;5120973;27;19908;-80
2021/01/24 14:01:17;;;;;;;;;;;5.60;92.30;;;;;;5101345;28;19927;-80
2021/01/24 14:03:42;;;;;;;;;;;5.50;92.60;;;;;;5102371;28;20428;-80
2021/01/24 14:06:08;;;;;;;;;;;5.60;92.90;;;;;;5103273;28;19912;-80
2021/01/24 14:08:33;;;;;;;;;;;5.60;93.20;;;;;;5099269;28;19912;-79
2021/01/24 14:10:59;;;;;;;;;;;5.60;93.70;;;;;;5100973;28;20291;-80
2021/01/24 14:13:24;;;;;;;;;;;5.50;93.70;;;;;;5103522;28;19923;-79
2021/01/24 14:15:50;;;;;;;;;;;5.50;94.10;;;;;;5105354;28;19959;-80
2021/01/24 14:18:15;;;;;;;;;;;5.50;93.80;;;;;;5094054;28;19944;-80
2021/01/24 14:20:41;;;;;;;;;;;5.50;93.90;;;;;;5094284;28;19912;-80
2021/01/24 14:23:06;;;;;;;;;;;5.50;94.30;;;;;;5090964;28;19908;-80
2021/01/24 14:25:32;;;;;;;;;;;5.50;94.40;;;;;;5113502;28;19915;-81
2021/01/24 14:27:57;;;;;;;;;;;5.50;94.30;;;;;;5101797;28;19908;-80